sensor_id;sensor_type;location;lat;lon;timestamp;pressure;altitude;pressure_sealevel;temperature;humidity
46448;BME280;32145;50.390;30.778;2024-01-10T00:02:04;100968.16;;;-6.29;76.97
46448;BME280;32145;50.390;30.778;2024-01-10T00:04:59;100977.94;;;-6.31;77.18
46448;BME280;32145;50.390;30.778;2024-01-10T00:07:55;100967.47;;;-6.32;76.63
46448;BME280;32145;50.390;30.778;2024-01-10T00:10:52;100965.88;;;-6.35;77.39
46448;BME280;32145;50.390;30.778;2024-01-10T00:13:46;100955.63;;;-6.40;76.95
46448;BME280;32145;50.390;30.778;2024-01-10T00:16:40;100947.72;;;-6.40;76.70
46448;BME280;32145;50.390;30.778;2024-01-10T00:19:36;100932.81;;;-6.41;77.07
46448;BME280;32145;50.390;30.778;2024-01-10T00:22:30;100932.97;;;-6.44;77.28
46448;BME280;32145;50.390;30.778;2024-01-10T00:25:24;100952.50;;;-6.47;76.91
46448;BME280;32145;50.390;30.778;2024-01-10T00:28:19;100943.53;;;-6.44;77.53
46448;BME280;32145;50.390;30.778;2024-01-10T00:31:15;100929.63;;;-6.46;77.62
46448;BME280;32145;50.390;30.778;2024-01-10T00:34:11;100925.84;;;-6.42;77.44
46448;BME280;32145;50.390;30.778;2024-01-10T00:37:07;100934.69;;;-6.43;77.43
46448;BME280;32145;50.390;30.778;2024-01-10T00:40:01;100930.25;;;-6.42;77.11
46448;BME280;32145;50.390;30.778;2024-01-10T00:42:55;100924.16;;;-6.43;76.84
46448;BME280;32145;50.390;30.778;2024-01-10T00:45:49;100933.75;;;-6.42;76.98
46448;BME280;32145;50.390;30.778;2024-01-10T00:48:46;100932.81;;;-6.41;76.98
46448;BME280;32145;50.390;30.778;2024-01-10T00:51:40;100936.19;;;-6.39;76.76
46448;BME280;32145;50.390;30.778;2024-01-10T00:54:37;100939.38;;;-6.34;76.60
46448;BME280;32145;50.390;30.778;2024-01-10T00:57:34;100941.06;;;-6.32;76.72
46448;BME280;32145;50.390;30.778;2024-01-10T01:00:32;100933.06;;;-6.31;77.05
46448;BME280;32145;50.390;30.778;2024-01-10T01:03:28;100930.34;;;-6.29;77.21
46448;BME280;32145;50.390;30.778;2024-01-10T01:06:24;100929.38;;;-6.28;76.74
46448;BME280;32145;50.390;30.778;2024-01-10T01:09:20;100927.50;;;-6.26;76.77
46448;BME280;32145;50.390;30.778;2024-01-10T01:12:18;100912.63;;;-6.27;76.95
46448;BME280;32145;50.390;30.778;2024-01-10T01:15:15;100909.97;;;-6.27;76.50
46448;BME280;32145;50.390;30.778;2024-01-10T01:18:11;100909.13;;;-6.28;76.99
46448;BME280;32145;50.390;30.778;2024-01-10T01:21:05;100903.22;;;-6.31;76.91
46448;BME280;32145;50.390;30.778;2024-01-10T01:23:59;100899.81;;;-6.34;77.19
46448;BME280;32145;50.390;30.778;2024-01-10T01:26:56;100900.75;;;-6.35;76.65
46448;BME280;32145;50.390;30.778;2024-01-10T01:29:53;100888.69;;;-6.39;76.14
46448;BME280;32145;50.390;30.778;2024-01-10T01:32:48;100890.56;;;-6.41;76.24
46448;BME280;32145;50.390;30.778;2024-01-10T01:35:42;100888.03;;;-6.42;76.40
46448;BME280;32145;50.390;30.778;2024-01-10T01:38:36;100889.84;;;-6.43;75.95
46448;BME280;32145;50.390;30.778;2024-01-10T01:41:30;100883.81;;;-6.45;76.07
46448;BME280;32145;50.390;30.778;2024-01-10T01:44:27;100885.72;;;-6.47;76.14
46448;BME280;32145;50.390;30.778;2024-01-10T01:47:24;100885.72;;;-6.47;76.31
46448;BME280;32145;50.390;30.778;2024-01-10T01:50:21;100882.22;;;-6.48;76.39
46448;BME280;32145;50.390;30.778;2024-01-10T01:53:18;100870.59;;;-6.45;75.72
46448;BME280;32145;50.390;30.778;2024-01-10T01:56:15;100860.25;;;-6.48;76.04
46448;BME280;32145;50.390;30.778;2024-01-10T01:59:11;100848.97;;;-6.50;76.30
46448;BME280;32145;50.390;30.778;2024-01-10T02:02:07;100838.50;;;-6.52;76.35
46448;BME280;32145;50.390;30.778;2024-01-10T02:05:03;100833.31;;;-6.53;76.72
46448;BME280;32145;50.390;30.778;2024-01-10T02:07:58;100832.06;;;-6.48;76.48
46448;BME280;32145;50.390;30.778;2024-01-10T02:10:52;100821.81;;;-6.52;76.30
46448;BME280;32145;50.390;30.778;2024-01-10T02:13:47;100829.00;;;-6.54;76.29
46448;BME280;32145;50.390;30.778;2024-01-10T02:16:41;100819.16;;;-6.52;76.13
46448;BME280;32145;50.390;30.778;2024-01-10T02:19:36;100814.84;;;-6.53;76.27
46448;BME280;32145;50.390;30.778;2024-01-10T02:22:32;100818.97;;;-6.49;76.48
46448;BME280;32145;50.390;30.778;2024-01-10T02:25:27;100808.75;;;-6.54;77.00
46448;BME280;32145;50.390;30.778;2024-01-10T02:28:22;100798.06;;;-6.52;76.52
46448;BME280;32145;50.390;30.778;2024-01-10T02:31:16;100793.44;;;-6.49;76.79
46448;BME280;32145;50.390;30.778;2024-01-10T02:34:10;100802.97;;;-6.46;76.43
46448;BME280;32145;50.390;30.778;2024-01-10T02:37:05;100799.38;;;-6.45;77.32
46448;BME280;32145;50.390;30.778;2024-01-10T02:39:59;100793.13;;;-6.44;77.24
46448;BME280;32145;50.390;30.778;2024-01-10T02:42:54;100788.81;;;-6.45;77.45
46448;BME280;32145;50.390;30.778;2024-01-10T02:45:49;100798.53;;;-6.45;77.18
46448;BME280;32145;50.390;30.778;2024-01-10T02:48:43;100789.47;;;-6.41;76.93
46448;BME280;32145;50.390;30.778;2024-01-10T02:51:40;100789.25;;;-6.38;77.42
46448;BME280;32145;50.390;30.778;2024-01-10T02:54:36;100791.78;;;-6.37;76.76
46448;BME280;32145;50.390;30.778;2024-01-10T02:57:32;100787.28;;;-6.35;77.51
46448;BME280;32145;50.390;30.778;2024-01-10T03:00:30;100781.91;;;-6.33;76.94
46448;BME280;32145;50.390;30.778;2024-01-10T03:03:26;100788.00;;;-6.32;77.05
46448;BME280;32145;50.390;30.778;2024-01-10T03:06:22;100783.38;;;-6.29;77.86
46448;BME280;32145;50.390;30.778;2024-01-10T03:09:18;100776.09;;;-6.25;77.30
46448;BME280;32145;50.390;30.778;2024-01-10T03:12:14;100778.72;;;-6.25;77.79
46448;BME280;32145;50.390;30.778;2024-01-10T03:15:11;100779.50;;;-6.23;77.40
46448;BME280;32145;50.390;30.778;2024-01-10T03:18:09;100778.53;;;-6.22;77.35
46448;BME280;32145;50.390;30.778;2024-01-10T03:21:05;100778.25;;;-6.17;77.74
46448;BME280;32145;50.390;30.778;2024-01-10T03:24:02;100785.31;;;-6.18;77.73
46448;BME280;32145;50.390;30.778;2024-01-10T03:26:58;100781.72;;;-6.17;77.66
46448;BME280;32145;50.390;30.778;2024-01-10T03:29:54;100783.63;;;-6.19;77.74
46448;BME280;32145;50.390;30.778;2024-01-10T03:32:51;100780.03;;;-6.18;77.68
46448;BME280;32145;50.390;30.778;2024-01-10T03:35:48;100763.13;;;-6.15;78.01
46448;BME280;32145;50.390;30.778;2024-01-10T03:38:45;100764.00;;;-6.15;77.79
46448;BME280;32145;50.390;30.778;2024-01-10T03:41:41;100769.28;;;-6.15;78.09
46448;BME280;32145;50.390;30.778;2024-01-10T03:44:38;100772.63;;;-6.13;78.18
46448;BME280;32145;50.390;30.778;2024-01-10T03:47:34;100770.00;;;-6.13;77.53
46448;BME280;32145;50.390;30.778;2024-01-10T03:50:30;100767.16;;;-6.10;78.18
46448;BME280;32145;50.390;30.778;2024-01-10T03:53:28;100762.72;;;-6.09;78.06
46448;BME280;32145;50.390;30.778;2024-01-10T03:56:24;100769.78;;;-6.10;77.57
46448;BME280;32145;50.390;30.778;2024-01-10T03:59:21;100768.75;;;-6.07;77.55
46448;BME280;32145;50.390;30.778;2024-01-10T04:02:17;100758.09;;;-6.05;77.42
46448;BME280;32145;50.390;30.778;2024-01-10T04:05:13;100775.84;;;-6.07;77.89
46448;BME280;32145;50.390;30.778;2024-01-10T04:08:07;100766.97;;;-6.06;78.19
46448;BME280;32145;50.390;30.778;2024-01-10T04:11:03;100755.44;;;-6.05;77.71
46448;BME280;32145;50.390;30.778;2024-01-10T04:13:58;100761.47;;;-6.03;78.23
46448;BME280;32145;50.390;30.778;2024-01-10T04:16:53;100766.63;;;-6.02;78.07
46448;BME280;32145;50.390;30.778;2024-01-10T04:19:47;100752.56;;;-6.02;77.77
46448;BME280;32145;50.390;30.778;2024-01-10T04:22:41;100749.81;;;-6.01;77.73
46448;BME280;32145;50.390;30.778;2024-01-10T04:25:35;100747.09;;;-5.99;78.15
46448;BME280;32145;50.390;30.778;2024-01-10T04:28:31;100754.06;;;-5.98;77.75
46448;BME280;32145;50.390;30.778;2024-01-10T04:31:25;100747.09;;;-5.99;77.77
46448;BME280;32145;50.390;30.778;2024-01-10T04:34:20;100743.50;;;-5.98;78.02
46448;BME280;32145;50.390;30.778;2024-01-10T04:37:14;100736.44;;;-5.98;78.28
46448;BME280;32145;50.390;30.778;2024-01-10T04:40:09;100750.44;;;-5.97;78.33
46448;BME280;32145;50.390;30.778;2024-01-10T04:43:03;100757.44;;;-5.96;78.17
46448;BME280;32145;50.390;30.778;2024-01-10T04:45:59;100756.50;;;-5.95;77.82
46448;BME280;32145;50.390;30.778;2024-01-10T04:48:54;100759.84;;;-5.93;78.42
46448;BME280;32145;50.390;30.778;2024-01-10T04:51:48;100760.72;;;-5.92;78.39
46448;BME280;32145;50.390;30.778;2024-01-10T04:54:42;100766.84;;;-5.92;78.02
46448;BME280;32145;50.390;30.778;2024-01-10T04:57:36;100766.72;;;-5.90;78.37
46448;BME280;32145;50.390;30.778;2024-01-10T05:00:30;100781.75;;;-5.91;78.55
46448;BME280;32145;50.390;30.778;2024-01-10T05:03:26;100792.31;;;-5.91;78.10
46448;BME280;32145;50.390;30.778;2024-01-10T05:06:20;100787.03;;;-5.91;78.62
46448;BME280;32145;50.390;30.778;2024-01-10T05:09:15;100787.75;;;-5.89;78.00
46448;BME280;32145;50.390;30.778;2024-01-10T05:12:09;100792.22;;;-5.89;78.16
46448;BME280;32145;50.390;30.778;2024-01-10T05:15:04;100797.50;;;-5.89;78.57
46448;BME280;32145;50.390;30.778;2024-01-10T05:17:58;100799.06;;;-5.87;78.24
46448;BME280;32145;50.390;30.778;2024-01-10T05:20:54;100807.09;;;-5.88;78.25
46448;BME280;32145;50.390;30.778;2024-01-10T05:23:49;100808.06;;;-5.89;78.64
46448;BME280;32145;50.390;30.778;2024-01-10T05:26:43;100812.38;;;-5.88;78.82
46448;BME280;32145;50.390;30.778;2024-01-10T05:29:37;100820.19;;;-5.87;79.01
46448;BME280;32145;50.390;30.778;2024-01-10T05:32:31;100819.25;;;-5.86;78.56
46448;BME280;32145;50.390;30.778;2024-01-10T05:35:27;100827.16;;;-5.86;78.57
46448;BME280;32145;50.390;30.778;2024-01-10T05:38:25;100815.66;;;-5.85;78.73
46448;BME280;32145;50.390;30.778;2024-01-10T05:41:19;100823.56;;;-5.85;78.85
46448;BME280;32145;50.390;30.778;2024-01-10T05:44:13;100825.28;;;-5.84;79.33
46448;BME280;32145;50.390;30.778;2024-01-10T05:47:08;100824.31;;;-5.83;78.81
46448;BME280;32145;50.390;30.778;2024-01-10T05:50:02;100817.34;;;-5.84;78.89
46448;BME280;32145;50.390;30.778;2024-01-10T05:52:57;100813.00;;;-5.85;79.30
46448;BME280;32145;50.390;30.778;2024-01-10T05:55:52;100811.22;;;-5.84;79.26
46448;BME280;32145;50.390;30.778;2024-01-10T05:58:47;100811.13;;;-5.83;79.56
46448;BME280;32145;50.390;30.778;2024-01-10T06:01:41;100805.72;;;-5.81;78.91
46448;BME280;32145;50.390;30.778;2024-01-10T06:04:35;100803.81;;;-5.79;79.45
46448;BME280;32145;50.390;30.778;2024-01-10T06:07:29;100815.13;;;-5.77;79.57
46448;BME280;32145;50.390;30.778;2024-01-10T06:10:24;100817.69;;;-5.75;79.06
46448;BME280;32145;50.390;30.778;2024-01-10T06:13:19;100814.09;;;-5.74;79.05
46448;BME280;32145;50.390;30.778;2024-01-10T06:16:14;100813.13;;;-5.73;79.41
46448;BME280;32145;50.390;30.778;2024-01-10T06:19:08;100806.91;;;-5.72;79.48
46448;BME280;32145;50.390;30.778;2024-01-10T06:22:02;100810.28;;;-5.70;79.73
46448;BME280;32145;50.390;30.778;2024-01-10T06:24:59;100809.44;;;-5.71;79.44
46448;BME280;32145;50.390;30.778;2024-01-10T06:27:55;100821.81;;;-5.71;79.90
46448;BME280;32145;50.390;30.778;2024-01-10T06:30:51;100818.84;;;-5.66;79.41
46448;BME280;32145;50.390;30.778;2024-01-10T06:33:46;100825.72;;;-5.64;79.72
46448;BME280;32145;50.390;30.778;2024-01-10T06:36:40;100824.78;;;-5.63;79.52
46448;BME280;32145;50.390;30.778;2024-01-10T06:39:34;100827.31;;;-5.61;79.78
46448;BME280;32145;50.390;30.778;2024-01-10T06:42:28;100835.03;;;-5.58;79.80
46448;BME280;32145;50.390;30.778;2024-01-10T06:45:22;100845.47;;;-5.57;79.63
46448;BME280;32145;50.390;30.778;2024-01-10T06:48:18;100831.34;;;-5.56;79.72
46448;BME280;32145;50.390;30.778;2024-01-10T06:51:13;100827.53;;;-5.51;80.00
46448;BME280;32145;50.390;30.778;2024-01-10T06:54:10;100829.31;;;-5.52;79.68
46448;BME280;32145;50.390;30.778;2024-01-10T06:57:06;100836.28;;;-5.51;79.97
46448;BME280;32145;50.390;30.778;2024-01-10T07:00:02;100835.25;;;-5.48;79.98
46448;BME280;32145;50.390;30.778;2024-01-10T07:03:01;100836.09;;;-5.48;79.87
46448;BME280;32145;50.390;30.778;2024-01-10T07:05:46;100840.09;;;-5.42;79.74
46448;BME280;32145;50.390;30.778;2024-01-10T07:08:40;100833.03;;;-5.41;80.01
46448;BME280;32145;50.390;30.778;2024-01-10T07:11:35;100831.22;;;-5.41;79.72
46448;BME280;32145;50.390;30.778;2024-01-10T07:14:19;100841.59;;;-5.38;79.78
46448;BME280;32145;50.390;30.778;2024-01-10T07:17:04;100832.69;;;-5.37;79.85
46448;BME280;32145;50.390;30.778;2024-01-10T07:19:48;100822.88;;;-5.35;80.13
46448;BME280;32145;50.390;30.778;2024-01-10T07:22:34;100827.09;;;-5.32;79.95
46448;BME280;32145;50.390;30.778;2024-01-10T07:25:30;100827.19;;;-5.34;79.94
46448;BME280;32145;50.390;30.778;2024-01-10T07:28:15;100833.25;;;-5.32;79.89
46448;BME280;32145;50.390;30.778;2024-01-10T07:31:11;100824.34;;;-5.31;79.78
46448;BME280;32145;50.390;30.778;2024-01-10T07:34:06;100835.44;;;-5.25;79.76
46448;BME280;32145;50.390;30.778;2024-01-10T07:36:50;100830.16;;;-5.25;79.77
46448;BME280;32145;50.390;30.778;2024-01-10T07:39:35;100822.13;;;-5.24;79.72
46448;BME280;32145;50.390;30.778;2024-01-10T07:42:32;100831.53;;;-5.20;80.08
46448;BME280;32145;50.390;30.778;2024-01-10T07:45:16;100819.88;;;-5.17;79.62
46448;BME280;32145;50.390;30.778;2024-01-10T07:48:10;100830.34;;;-5.15;79.69
46448;BME280;32145;50.390;30.778;2024-01-10T07:51:05;100828.38;;;-5.12;79.71
46448;BME280;32145;50.390;30.778;2024-01-10T07:53:59;100827.19;;;-5.08;79.60
46448;BME280;32145;50.390;30.778;2024-01-10T07:56:55;100834.06;;;-5.05;79.60
46448;BME280;32145;50.390;30.778;2024-01-10T07:59:39;100828.47;;;-5.00;79.46
46448;BME280;32145;50.390;30.778;2024-01-10T08:02:33;100830.16;;;-4.99;79.61
46448;BME280;32145;50.390;30.778;2024-01-10T08:05:17;100828.22;;;-4.97;79.22
46448;BME280;32145;50.390;30.778;2024-01-10T08:08:11;100833.50;;;-4.97;79.20
46448;BME280;32145;50.390;30.778;2024-01-10T08:10:56;100841.03;;;-4.91;79.35
46448;BME280;32145;50.390;30.778;2024-01-10T08:13:48;100850.63;;;-4.90;79.10
46448;BME280;32145;50.390;30.778;2024-01-10T08:16:32;100858.59;;;-4.90;79.26
46448;BME280;32145;50.390;30.778;2024-01-10T08:19:22;100846.09;;;-4.88;79.34
46448;BME280;32145;50.390;30.778;2024-01-10T08:22:16;100853.06;;;-4.87;79.16
46448;BME280;32145;50.390;30.778;2024-01-10T08:25:00;100854.66;;;-4.84;79.25
46448;BME280;32145;50.390;30.778;2024-01-10T08:27:57;100858.16;;;-4.84;79.24
46448;BME280;32145;50.390;30.778;2024-01-10T08:30:55;100857.94;;;-4.81;79.10
46448;BME280;32145;50.390;30.778;2024-01-10T08:33:52;100858.66;;;-4.79;78.99
46448;BME280;32145;50.390;30.778;2024-01-10T08:36:36;100861.09;;;-4.75;79.02
46448;BME280;32145;50.390;30.778;2024-01-10T08:39:21;100870.09;;;-4.78;78.88
46448;BME280;32145;50.390;30.778;2024-01-10T08:42:17;100868.06;;;-4.74;79.06
46448;BME280;32145;50.390;30.778;2024-01-10T08:45:13;100858.97;;;-4.70;78.98
46448;BME280;32145;50.390;30.778;2024-01-10T08:47:59;100859.72;;;-4.68;78.97
46448;BME280;32145;50.390;30.778;2024-01-10T08:50:43;100872.19;;;-4.70;78.71
46448;BME280;32145;50.390;30.778;2024-01-10T08:53:40;100862.38;;;-4.68;78.87
46448;BME280;32145;50.390;30.778;2024-01-10T08:56:24;100867.44;;;-4.65;78.97
46448;BME280;32145;50.390;30.778;2024-01-10T08:59:18;100857.91;;;-4.68;78.78
46448;BME280;32145;50.390;30.778;2024-01-10T09:02:02;100848.06;;;-4.66;78.68
46448;BME280;32145;50.390;30.778;2024-01-10T09:04:48;100847.75;;;-4.61;78.90
46448;BME280;32145;50.390;30.778;2024-01-10T09:07:42;100845.81;;;-4.59;78.98
46448;BME280;32145;50.390;30.778;2024-01-10T09:10:27;100839.56;;;-4.58;78.63
46448;BME280;32145;50.390;30.778;2024-01-10T09:13:23;100832.38;;;-4.56;78.81
46448;BME280;32145;50.390;30.778;2024-01-10T09:16:13;100830.44;;;-4.54;78.80
46448;BME280;32145;50.390;30.778;2024-01-10T09:19:08;100826.59;;;-4.49;78.67
46448;BME280;32145;50.390;30.778;2024-01-10T09:22:03;100829.78;;;-4.44;78.71
46448;BME280;32145;50.390;30.778;2024-01-10T09:24:47;100823.03;;;-4.48;78.86
46448;BME280;32145;50.390;30.778;2024-01-10T09:27:44;100821.09;;;-4.46;78.87
46448;BME280;32145;50.390;30.778;2024-01-10T09:30:28;100810.28;;;-4.43;78.95
46448;BME280;32145;50.390;30.778;2024-01-10T09:33:22;100818.34;;;-4.45;78.50
46448;BME280;32145;50.390;30.778;2024-01-10T09:36:07;100823.63;;;-4.45;78.42
46448;BME280;32145;50.390;30.778;2024-01-10T09:38:52;100819.91;;;-4.42;78.64
46448;BME280;32145;50.390;30.778;2024-01-10T09:41:48;100825.31;;;-4.44;78.70
46448;BME280;32145;50.390;30.778;2024-01-10T09:44:33;100817.38;;;-4.44;78.81
46448;BME280;32145;50.390;30.778;2024-01-10T09:47:19;100819.81;;;-4.41;78.59
46448;BME280;32145;50.390;30.778;2024-01-10T09:50:04;100819.81;;;-4.41;78.65
46448;BME280;32145;50.390;30.778;2024-01-10T09:53:05;100823.81;;;-4.35;78.40
46448;BME280;32145;50.390;30.778;2024-01-10T09:55:51;100824.56;;;-4.33;78.46
46448;BME280;32145;50.390;30.778;2024-01-10T09:58:35;100822.94;;;-4.35;78.41
46448;BME280;32145;50.390;30.778;2024-01-10T10:01:30;100822.13;;;-4.36;78.60
46448;BME280;32145;50.390;30.778;2024-01-10T10:04:15;100823.69;;;-4.33;78.37
46448;BME280;32145;50.390;30.778;2024-01-10T10:07:13;100832.38;;;-4.31;78.29
46448;BME280;32145;50.390;30.778;2024-01-10T10:10:05;100824.44;;;-4.31;78.57
46448;BME280;32145;50.390;30.778;2024-01-10T10:12:51;100823.59;;;-4.32;78.37
46448;BME280;32145;50.390;30.778;2024-01-10T10:15:36;100816.63;;;-4.33;78.16
46448;BME280;32145;50.390;30.778;2024-01-10T10:18:31;100820.72;;;-4.29;78.43
46448;BME280;32145;50.390;30.778;2024-01-10T10:21:25;100818.06;;;-4.29;78.71
46448;BME280;32145;50.390;30.778;2024-01-10T10:24:10;100819.75;;;-4.28;78.38
46448;BME280;32145;50.390;30.778;2024-01-10T10:27:07;100822.91;;;-4.22;78.70
46448;BME280;32145;50.390;30.778;2024-01-10T10:29:53;100818.34;;;-4.20;78.38
46448;BME280;32145;50.390;30.778;2024-01-10T10:32:47;100811.22;;;-4.20;78.57
46448;BME280;32145;50.390;30.778;2024-01-10T10:35:44;100816.66;;;-4.21;79.06
46448;BME280;32145;50.390;30.778;2024-01-10T10:38:35;100814.03;;;-4.21;78.72
46448;BME280;32145;50.390;30.778;2024-01-10T10:41:20;100818.25;;;-4.19;78.93
46448;BME280;32145;50.390;30.778;2024-01-10T10:44:06;100813.53;;;-4.15;79.13
46448;BME280;32145;50.390;30.778;2024-01-10T10:46:53;100811.00;;;-4.17;78.59
46448;BME280;32145;50.390;30.778;2024-01-10T10:49:44;100810.19;;;-4.17;78.91
46448;BME280;32145;50.390;30.778;2024-01-10T10:52:31;100817.16;;;-4.16;78.85
46448;BME280;32145;50.390;30.778;2024-01-10T10:55:17;100819.69;;;-4.15;79.06
46448;BME280;32145;50.390;30.778;2024-01-10T10:58:12;100818.72;;;-4.14;78.61
46448;BME280;32145;50.390;30.778;2024-01-10T11:00:57;100818.84;;;-4.15;79.05
46448;BME280;32145;50.390;30.778;2024-01-10T11:03:43;100826.78;;;-4.15;78.73
46448;BME280;32145;50.390;30.778;2024-01-10T11:06:38;100818.84;;;-4.15;78.94
46448;BME280;32145;50.390;30.778;2024-01-10T11:09:23;100811.97;;;-4.18;78.87
46448;BME280;32145;50.390;30.778;2024-01-10T11:12:19;100821.16;;;-4.10;79.06
46448;BME280;32145;50.390;30.778;2024-01-10T11:15:20;100825.97;;;-4.04;79.61
46448;BME280;32145;50.390;30.778;2024-01-10T11:18:36;100822.25;;;-4.02;79.06
46448;BME280;32145;50.390;30.778;2024-01-10T11:21:41;100819.59;;;-4.02;79.08
46448;BME280;32145;50.390;30.778;2024-01-10T11:24:30;100825.97;;;-4.04;79.26
46448;BME280;32145;50.390;30.778;2024-01-10T11:27:16;100824.31;;;-4.05;79.05
46448;BME280;32145;50.390;30.778;2024-01-10T11:30:13;100828.53;;;-4.03;79.27
46448;BME280;32145;50.390;30.778;2024-01-10T11:33:19;100830.84;;;-3.98;79.27
46448;BME280;32145;50.390;30.778;2024-01-10T11:36:13;100827.34;;;-3.98;79.33
46448;BME280;32145;50.390;30.778;2024-01-10T11:39:00;100829.25;;;-4.01;79.46
46448;BME280;32145;50.390;30.778;2024-01-10T11:41:57;100823.22;;;-4.03;79.02
46448;BME280;32145;50.390;30.778;2024-01-10T11:44:48;100825.75;;;-4.01;79.64
46448;BME280;32145;50.390;30.778;2024-01-10T11:47:45;100827.69;;;-4.03;78.96
46448;BME280;32145;50.390;30.778;2024-01-10T11:50:29;100823.22;;;-4.03;79.28
46448;BME280;32145;50.390;30.778;2024-01-10T11:53:40;100831.69;;;-3.97;79.66
46448;BME280;32145;50.390;30.778;2024-01-10T11:56:39;100825.19;;;-3.93;79.19
46448;BME280;32145;50.390;30.778;2024-01-10T11:59:24;100831.22;;;-3.91;78.91
46448;BME280;32145;50.390;30.778;2024-01-10T12:02:08;100831.00;;;-3.88;79.22
46448;BME280;32145;50.390;30.778;2024-01-10T12:04:58;100834.50;;;-3.88;79.24
46448;BME280;32145;50.390;30.778;2024-01-10T12:07:53;100829.31;;;-3.89;79.04
46448;BME280;32145;50.390;30.778;2024-01-10T12:10:37;100832.91;;;-3.90;79.74
46448;BME280;32145;50.390;30.778;2024-01-10T12:13:35;100826.78;;;-3.91;79.23
46448;BME280;32145;50.390;30.778;2024-01-10T12:16:19;100823.28;;;-3.91;79.62
46448;BME280;32145;50.390;30.778;2024-01-10T12:19:13;100828.56;;;-3.91;79.62
46448;BME280;32145;50.390;30.778;2024-01-10T12:21:58;100824.84;;;-3.89;79.45
46448;BME280;32145;50.390;30.778;2024-01-10T12:24:52;100834.34;;;-3.86;79.15
46448;BME280;32145;50.390;30.778;2024-01-10T12:27:48;100825.69;;;-3.88;79.54
46448;BME280;32145;50.390;30.778;2024-01-10T12:30:45;100827.38;;;-3.87;79.29
46448;BME280;32145;50.390;30.778;2024-01-10T12:33:34;100829.06;;;-3.86;79.27
46448;BME280;32145;50.390;30.778;2024-01-10T12:36:20;100830.78;;;-3.85;79.68
46448;BME280;32145;50.390;30.778;2024-01-10T12:39:11;100839.66;;;-3.86;79.12
46448;BME280;32145;50.390;30.778;2024-01-10T12:41:57;100834.34;;;-3.86;79.29
46448;BME280;32145;50.390;30.778;2024-01-10T12:44:54;100841.59;;;-3.88;79.31
46448;BME280;32145;50.390;30.778;2024-01-10T12:47:39;100839.91;;;-3.89;79.23
46448;BME280;32145;50.390;30.778;2024-01-10T12:50:24;100841.59;;;-3.88;79.21
46448;BME280;32145;50.390;30.778;2024-01-10T12:53:14;100842.56;;;-3.89;79.29
46448;BME280;32145;50.390;30.778;2024-01-10T12:56:06;100844.34;;;-3.90;79.38
46448;BME280;32145;50.390;30.778;2024-01-10T12:58:50;100847.13;;;-3.91;79.50
46448;BME280;32145;50.390;30.778;2024-01-10T13:01:35;100839.91;;;-3.89;79.18
46448;BME280;32145;50.390;30.778;2024-01-10T13:04:20;100851.34;;;-3.89;79.12
46448;BME280;32145;50.390;30.778;2024-01-10T13:07:17;100837.38;;;-3.91;79.59
46448;BME280;32145;50.390;30.778;2024-01-10T13:10:01;100828.47;;;-3.90;79.49
46448;BME280;32145;50.390;30.778;2024-01-10T13:12:56;100848.09;;;-3.92;79.23
46448;BME280;32145;50.390;30.778;2024-01-10T13:15:50;100832.06;;;-3.91;79.19
46448;BME280;32145;50.390;30.778;2024-01-10T13:18:34;100838.44;;;-3.93;79.38
46448;BME280;32145;50.390;30.778;2024-01-10T13:21:30;100836.75;;;-3.94;79.74
46448;BME280;32145;50.390;30.778;2024-01-10T13:24:14;100834.09;;;-3.94;79.80
46448;BME280;32145;50.390;30.778;2024-01-10T13:27:08;100832.19;;;-3.92;80.12
46448;BME280;32145;50.390;30.778;2024-01-10T13:29:56;100829.31;;;-3.89;80.11
46448;BME280;32145;50.390;30.778;2024-01-10T13:32:54;100830.13;;;-3.89;79.67
46448;BME280;32145;50.390;30.778;2024-01-10T13:35:39;100827.59;;;-3.90;80.03
46448;BME280;32145;50.390;30.778;2024-01-10T13:38:31;100821.59;;;-3.92;80.05
46448;BME280;32145;50.390;30.778;2024-01-10T13:41:25;100820.63;;;-3.91;80.18
46448;BME280;32145;50.390;30.778;2024-01-10T13:44:10;100817.00;;;-3.90;80.36
46448;BME280;32145;50.390;30.778;2024-01-10T13:46:58;100822.31;;;-3.90;80.01
46448;BME280;32145;50.390;30.778;2024-01-10T13:49:54;100817.00;;;-3.90;80.31
46448;BME280;32145;50.390;30.778;2024-01-10T13:52:50;100811.69;;;-3.90;80.07
46448;BME280;32145;50.390;30.778;2024-01-10T13:55:48;100807.25;;;-3.90;79.99
46448;BME280;32145;50.390;30.778;2024-01-10T13:58:44;100817.00;;;-3.90;79.90
46448;BME280;32145;50.390;30.778;2024-01-10T14:01:28;100818.81;;;-3.91;80.06
46448;BME280;32145;50.390;30.778;2024-01-10T14:04:22;100816.06;;;-3.89;80.57
46448;BME280;32145;50.390;30.778;2024-01-10T14:07:17;100816.06;;;-3.89;80.53
46448;BME280;32145;50.390;30.778;2024-01-10T14:10:13;100817.00;;;-3.90;80.70
46448;BME280;32145;50.390;30.778;2024-01-10T14:13:10;100823.16;;;-3.90;80.70
46448;BME280;32145;50.390;30.778;2024-01-10T14:15:54;100815.31;;;-3.91;80.51
46448;BME280;32145;50.390;30.778;2024-01-10T14:18:49;100808.34;;;-3.92;80.50
46448;BME280;32145;50.390;30.778;2024-01-10T14:21:32;100808.34;;;-3.92;80.56
46448;BME280;32145;50.390;30.778;2024-01-10T14:24:29;100814.59;;;-3.93;80.86
46448;BME280;32145;50.390;30.778;2024-01-10T14:27:13;100818.19;;;-3.94;80.78
46448;BME280;32145;50.390;30.778;2024-01-10T14:30:09;100825.19;;;-3.93;80.55
46448;BME280;32145;50.390;30.778;2024-01-10T14:32:59;100824.34;;;-3.94;80.78
46448;BME280;32145;50.390;30.778;2024-01-10T14:35:44;100818.06;;;-3.93;81.14
46448;BME280;32145;50.390;30.778;2024-01-10T14:38:40;100817.25;;;-3.93;80.79
46448;BME280;32145;50.390;30.778;2024-01-10T14:41:24;100811.00;;;-3.92;80.89
46448;BME280;32145;50.390;30.778;2024-01-10T14:44:19;100816.28;;;-3.92;80.75
46448;BME280;32145;50.390;30.778;2024-01-10T14:47:16;100819.75;;;-3.92;80.89
46448;BME280;32145;50.390;30.778;2024-01-10T14:50:11;100807.47;;;-3.93;80.96
46448;BME280;32145;50.390;30.778;2024-01-10T14:53:05;100824.22;;;-3.92;81.07